createdAt,value
2022-11-15T00:05:36.758Z,26.38
2022-11-15T00:11:13.001Z,31.70
2022-11-15T00:17:00.512Z,23.25
2022-11-15T00:22:49.846Z,24.27
2022-11-15T00:28:37.742Z,26.25
2022-11-15T00:34:25.753Z,20.23
2022-11-15T00:40:15.681Z,28.40
2022-11-15T00:46:04.159Z,24.05
2022-11-15T00:51:51.643Z,26.83
2022-11-15T00:57:41.237Z,37.42
2022-11-15T01:03:30.033Z,27.52
2022-11-15T01:09:18.739Z,28.80
2022-11-15T01:15:09.139Z,25.58
2022-11-15T01:20:56.961Z,21.15
2022-11-15T01:26:44.754Z,27.05
2022-11-15T01:32:34.165Z,29.27
2022-11-15T01:38:21.797Z,22.65
2022-11-15T01:44:40.898Z,26.73
2022-11-15T01:50:34.254Z,27.27
2022-11-15T01:56:25.250Z,26.02
2022-11-15T02:02:14.774Z,31.63
2022-11-15T02:08:04.493Z,26.63
2022-11-15T02:13:53.000Z,33.92
2022-11-15T02:20:07.675Z,27.25
2022-11-15T02:26:21.748Z,24.02
2022-11-15T02:32:18.725Z,25.85
2022-11-15T02:38:12.900Z,28.08
2022-11-15T02:44:04.774Z,31.73
2022-11-15T02:49:56.682Z,50.55
2022-11-15T02:55:48.913Z,39.45
2022-11-15T03:01:47.477Z,36.50
2022-11-15T03:07:43.689Z,44.22
2022-11-15T03:13:40.116Z,58.08
2022-11-15T03:19:35.887Z,36.50
2022-11-15T03:25:28.007Z,53.15
2022-11-15T03:31:36.385Z,41.60
2022-11-15T03:37:29.766Z,30.60
2022-11-15T03:43:27.756Z,32.03
2022-11-15T03:49:22.704Z,40.30
2022-11-15T03:55:13.941Z,34.08
2022-11-15T04:01:03.262Z,41.80
2022-11-15T04:06:51.903Z,28.35
2022-11-15T04:12:43.483Z,44.78
2022-11-15T04:18:33.202Z,32.33
2022-11-15T04:24:20.980Z,28.95
2022-11-15T04:30:10.234Z,37.30
2022-11-15T04:36:16.535Z,25.70
2022-11-15T04:42:03.826Z,24.80
2022-11-15T04:47:51.961Z,22.63
2022-11-15T04:53:41.072Z,18.85
2022-11-15T04:59:28.929Z,17.13
2022-11-15T05:05:16.973Z,20.40
2022-11-15T05:11:06.159Z,19.80
2022-11-15T05:16:54.231Z,22.88
2022-11-15T05:22:41.894Z,18.55
2022-11-15T05:28:31.188Z,25.95
2022-11-15T05:34:19.471Z,22.17
2022-11-15T05:40:08.747Z,26.65
2022-11-15T05:45:59.359Z,27.38
2022-11-15T05:51:49.417Z,13.65
2022-11-15T05:57:38.765Z,14.82
2022-11-15T06:03:28.285Z,13.80
2022-11-15T06:09:16.699Z,15.02
2022-11-15T06:15:05.153Z,10.27
2022-11-15T06:20:54.232Z,15.88
2022-11-15T06:26:41.728Z,12.38
2022-11-15T06:32:31.561Z,13.18
2022-11-15T06:38:21.009Z,10.38
2022-11-15T06:44:08.762Z,11.63
2022-11-15T06:49:56.846Z,11.27
2022-11-15T06:55:45.974Z,9.82
2022-11-15T07:01:33.909Z,17.50
2022-11-15T07:07:21.871Z,11.82
2022-11-15T07:13:11.122Z,12.20
2022-11-15T07:18:59.429Z,13.38
2022-11-15T07:24:46.793Z,11.20
2022-11-15T07:30:38.915Z,12.65
2022-11-15T07:36:28.734Z,13.65
2022-11-15T07:42:34.317Z,29.67
2022-11-15T07:48:23.176Z,19.13
2022-11-15T07:54:10.768Z,16.58
2022-11-15T07:59:58.843Z,13.82
2022-11-15T08:05:52.652Z,16.13
2022-11-15T08:11:40.764Z,22.95
2022-11-15T08:17:28.640Z,13.77
2022-11-15T08:23:18.048Z,16.90
2022-11-15T08:29:05.785Z,17.52
2022-11-15T08:34:53.624Z,14.10
2022-11-15T08:40:43.195Z,21.15
2022-11-15T08:46:30.717Z,17.48
2022-11-15T08:52:18.959Z,19.25
2022-11-15T08:58:08.470Z,14.40
2022-11-15T09:09:44.748Z,12.73
2022-11-15T09:15:34.065Z,18.60
2022-11-15T09:21:21.855Z,9.60
2022-11-15T09:27:09.894Z,12.63
2022-11-15T09:32:59.126Z,17.17
2022-11-15T09:38:46.605Z,14.40
2022-11-15T09:44:50.695Z,9.13
2022-11-15T09:50:47.797Z,9.60
2022-11-15T09:56:20.700Z,10.57
2022-11-15T10:02:05.137Z,8.40
2022-11-15T10:07:46.075Z,5.93
2022-11-15T10:13:19.000Z,4.55
2022-11-15T10:18:58.528Z,11.50
2022-11-15T10:29:59.645Z,14.88
2022-11-15T10:35:30.925Z,14.63
2022-11-15T10:41:09.962Z,7.20
2022-11-15T10:46:47.479Z,16.53
2022-11-15T10:52:20.788Z,8.13
2022-11-15T10:57:54.211Z,7.50
2022-11-15T11:03:31.590Z,6.90
2022-11-15T11:09:02.949Z,7.00
2022-11-15T11:14:35.139Z,12.25
2022-11-15T11:20:12.363Z,6.65
2022-11-15T11:25:50.387Z,5.57
2022-11-15T11:31:32.783Z,5.43
2022-11-15T11:37:07.375Z,7.80
2022-11-15T11:42:46.198Z,13.95
2022-11-15T11:48:29.936Z,6.35
2022-11-15T11:54:05.703Z,5.43
2022-11-15T11:59:41.903Z,7.97
2022-11-15T12:05:18.561Z,14.65
2022-11-15T12:10:54.234Z,8.07
2022-11-15T12:16:28.523Z,5.55
2022-11-15T12:22:03.929Z,5.85
2022-11-15T12:27:38.288Z,8.70
2022-11-15T12:33:07.593Z,10.38
2022-11-15T12:38:58.885Z,10.20
2022-11-15T12:44:57.499Z,12.68
2022-11-15T12:50:59.107Z,9.85
2022-11-15T12:56:29.270Z,14.40
2022-11-15T13:02:02.108Z,9.60
2022-11-15T13:07:58.474Z,13.52
2022-11-15T13:13:47.209Z,8.93
2022-11-15T13:19:16.956Z,8.15
2022-11-15T13:30:23.618Z,9.00
2022-11-15T13:35:56.058Z,6.90
2022-11-15T13:41:26.612Z,7.40
2022-11-15T13:47:06.007Z,10.75
2022-11-15T13:52:37.662Z,9.90
2022-11-15T13:58:07.777Z,12.45
2022-11-15T14:03:48.344Z,7.68
2022-11-15T14:09:34.317Z,9.70
2022-11-15T14:15:20.043Z,7.82
2022-11-15T14:20:50.236Z,5.05
2022-11-15T14:26:30.823Z,12.70
2022-11-15T14:45:47.834Z,9.02
2022-11-15T14:51:19.376Z,12.93
2022-11-15T14:56:48.147Z,15.68
2022-11-15T15:02:21.546Z,15.88
2022-11-15T15:07:50.555Z,26.75
2022-11-15T15:13:21.509Z,19.20
2022-11-15T15:18:52.536Z,19.67
2022-11-15T15:24:20.982Z,38.08
2022-11-15T15:29:50.423Z,21.98
2022-11-15T15:35:20.760Z,16.17
2022-11-15T15:40:51.676Z,16.73
2022-11-15T15:46:22.169Z,12.75
2022-11-15T15:51:52.702Z,13.27
2022-11-15T15:57:21.310Z,11.57
2022-11-15T16:02:51.069Z,16.73
2022-11-15T16:08:23.878Z,17.00
2022-11-15T16:13:53.157Z,17.27
2022-11-15T16:19:22.231Z,15.95
2022-11-15T16:25:17.652Z,10.33
2022-11-15T16:30:46.341Z,8.23
2022-11-15T16:36:26.938Z,12.20
2022-11-15T16:42:00.983Z,8.93
2022-11-15T16:47:30.080Z,13.60
2022-11-15T16:53:00.707Z,16.02
2022-11-15T16:58:31.037Z,16.38
2022-11-15T17:04:12.577Z,8.43
2022-11-15T17:09:43.564Z,9.00
2022-11-15T17:15:14.869Z,11.85
2022-11-15T17:20:44.449Z,12.00
2022-11-15T17:26:29.463Z,11.20
2022-11-15T17:32:01.325Z,24.42
2022-11-15T17:37:30.388Z,25.08
2022-11-15T17:42:59.422Z,19.13
2022-11-15T17:48:32.058Z,23.90
2022-11-15T17:54:01.276Z,14.68
2022-11-15T17:59:30.167Z,15.33
2022-11-15T18:04:59.142Z,16.60
2022-11-15T18:10:23.559Z,11.68
2022-11-15T18:15:55.189Z,11.98
2022-11-15T18:21:22.477Z,13.68
2022-11-15T18:26:46.412Z,11.18
2022-11-15T18:32:17.772Z,10.65
2022-11-15T18:37:42.272Z,12.48
2022-11-15T18:43:05.348Z,12.60
2022-11-15T18:48:30.799Z,20.27
2022-11-15T18:53:56.103Z,15.05
2022-11-15T18:59:19.911Z,15.55
2022-11-15T19:04:44.360Z,17.10
2022-11-15T19:10:12.020Z,15.45
2022-11-15T19:15:41.560Z,14.63
2022-11-15T19:21:14.636Z,18.10
2022-11-15T19:26:46.383Z,10.48
2022-11-15T19:32:10.284Z,11.25
2022-11-15T19:37:36.493Z,17.23
2022-11-15T19:43:01.116Z,14.63
2022-11-15T19:49:07.566Z,13.65
2022-11-15T19:54:32.575Z,10.68
2022-11-15T20:00:00.847Z,11.23
2022-11-15T20:05:29.056Z,12.18
2022-11-15T20:10:54.350Z,14.65
2022-11-15T20:16:24.535Z,7.38
2022-11-15T20:21:49.801Z,13.10
2022-11-15T20:27:14.964Z,13.10
2022-11-15T20:32:52.712Z,13.65
2022-11-15T20:38:25.657Z,15.20
2022-11-15T20:43:50.247Z,13.50
2022-11-15T20:49:29.712Z,11.18
2022-11-15T20:54:55.046Z,16.02
2022-11-15T21:00:22.375Z,10.80
2022-11-15T21:05:50.073Z,11.05
2022-11-15T21:25:29.984Z,13.95
2022-11-15T21:30:55.174Z,11.90
2022-11-15T21:36:18.603Z,8.65
2022-11-15T21:41:43.763Z,10.98
2022-11-15T21:47:07.428Z,15.68
2022-11-15T21:52:30.903Z,15.45
2022-11-15T21:57:56.136Z,17.20
2022-11-15T22:03:25.587Z,15.50
2022-11-15T22:08:51.654Z,9.82
2022-11-15T22:14:17.431Z,13.20
2022-11-15T22:19:52.279Z,15.23
2022-11-15T22:25:16.917Z,19.15
2022-11-15T22:36:16.452Z,10.63
2022-11-15T22:41:40.448Z,13.57
2022-11-15T22:47:11.194Z,12.68
2022-11-15T22:52:36.896Z,12.15
2022-11-15T22:58:07.202Z,19.40
2022-11-15T23:03:32.570Z,16.27
2022-11-15T23:09:01.719Z,15.77
2022-11-15T23:14:29.260Z,14.40
2022-11-15T23:20:01.016Z,11.95
2022-11-15T23:25:35.394Z,14.32
2022-11-15T23:31:24.248Z,10.32
2022-11-15T23:36:49.590Z,13.57
2022-11-15T23:42:20.635Z,15.48
2022-11-15T23:47:49.414Z,10.88
2022-11-15T23:53:20.155Z,11.63
2022-11-15T23:58:50.540Z,11.18
